createdAt,value
2019-02-27T00:02:17.619Z,57.24
2019-02-27T00:04:44.319Z,56.95
2019-02-27T00:07:10.982Z,57.13
2019-02-27T00:09:38.539Z,56.92
2019-02-27T00:12:05.257Z,57.11
2019-02-27T00:14:31.975Z,57.07
2019-02-27T00:16:58.584Z,56.92
2019-02-27T00:19:25.241Z,57.71
2019-02-27T00:21:51.965Z,57.58
2019-02-27T00:24:18.686Z,57.49
2019-02-27T00:26:45.395Z,57.64
2019-02-27T00:29:12.190Z,57.80
2019-02-27T00:31:38.821Z,57.88
2019-02-27T00:34:05.519Z,57.99
2019-02-27T00:36:32.299Z,57.98
2019-02-27T00:38:59.038Z,58.18
2019-02-27T00:41:25.743Z,58.09
2019-02-27T00:43:52.459Z,58.14
2019-02-27T00:46:19.056Z,57.78
2019-02-27T00:48:45.723Z,58.10
2019-02-27T00:51:12.911Z,57.85
2019-02-27T00:53:39.663Z,57.97
2019-02-27T00:56:06.336Z,58.10
2019-02-27T00:58:33.002Z,58.37
2019-02-27T01:01:00.631Z,58.99
2019-02-27T01:03:27.265Z,58.98
2019-02-27T01:05:53.971Z,59.14
2019-02-27T01:08:20.638Z,59.45
2019-02-27T01:10:47.430Z,59.27
2019-02-27T01:13:15.247Z,59.03
2019-02-27T01:15:44.696Z,59.17
2019-02-27T01:18:10.419Z,59.61
2019-02-27T01:20:37.192Z,59.80
2019-02-27T01:23:03.913Z,59.81
2019-02-27T01:25:30.568Z,59.91
2019-02-27T01:27:57.319Z,59.49
2019-02-27T01:30:24.332Z,60.05
2019-02-27T01:32:51.604Z,61.07
2019-02-27T01:35:19.371Z,61.02
2019-02-27T01:37:47.001Z,60.67
2019-02-27T01:40:17.430Z,60.59
2019-02-27T01:42:42.851Z,60.78
2019-02-27T01:45:12.370Z,61.07
2019-02-27T01:47:39.023Z,61.47
2019-02-27T01:50:25.560Z,61.25
2019-02-27T01:52:52.205Z,60.97
2019-02-27T01:55:21.672Z,61.85
2019-02-27T01:57:47.592Z,61.82
2019-02-27T02:00:14.728Z,62.00
2019-02-27T02:02:41.851Z,61.28
2019-02-27T02:05:08.574Z,61.45
2019-02-27T02:07:40.157Z,61.00
2019-02-27T02:10:09.475Z,60.97
2019-02-27T02:12:36.308Z,60.49
2019-02-27T02:15:18.643Z,60.24
2019-02-27T02:17:47.014Z,59.85
2019-02-27T02:20:27.014Z,60.29
2019-02-27T02:23:07.722Z,60.17
2019-02-27T02:25:50.134Z,60.17
2019-02-27T02:28:32.362Z,60.14
2019-02-27T02:31:04.996Z,60.79
2019-02-27T02:33:38.187Z,60.89
2019-02-27T02:36:26.891Z,61.43
2019-02-27T02:39:18.057Z,61.14
2019-02-27T02:41:55.441Z,61.00
2019-02-27T02:44:34.753Z,60.59
2019-02-27T02:47:05.096Z,60.40
2019-02-27T02:49:59.197Z,60.47
2019-02-27T02:52:32.353Z,61.17
2019-02-27T02:55:27.163Z,61.31
2019-02-27T02:58:02.891Z,62.45
2019-02-27T03:00:56.150Z,62.56
2019-02-27T03:03:36.205Z,61.87
2019-02-27T03:06:23.289Z,61.91
2019-02-27T03:09:12.248Z,62.25
2019-02-27T03:11:55.775Z,61.75
2019-02-27T03:14:28.802Z,61.35
2019-02-27T03:17:21.526Z,61.66
2019-02-27T03:20:17.603Z,61.31
2019-02-27T03:23:05.025Z,62.10
2019-02-27T03:25:53.963Z,61.79
2019-02-27T03:28:27.140Z,62.08
2019-02-27T03:31:16.031Z,62.13
2019-02-27T03:34:05.534Z,62.44
2019-02-27T03:36:45.811Z,62.72
2019-02-27T03:39:39.227Z,63.73
2019-02-27T03:42:12.262Z,63.61
2019-02-27T03:44:55.869Z,62.87
2019-02-27T03:47:26.534Z,62.76
2019-02-27T03:50:19.803Z,62.45
2019-02-27T03:52:52.834Z,62.17
2019-02-27T03:55:32.857Z,62.49
2019-02-27T03:58:26.781Z,62.36
2019-02-27T04:01:30.621Z,62.34
2019-02-27T04:03:58.965Z,62.83
2019-02-27T04:06:32.297Z,62.62
2019-02-27T04:08:59.647Z,62.32
2019-02-27T04:11:26.477Z,62.44
2019-02-27T04:13:53.177Z,61.99
2019-02-27T04:16:19.963Z,62.66
2019-02-27T04:18:46.588Z,61.95
2019-02-27T04:21:13.712Z,61.89
2019-02-27T04:23:40.435Z,62.11
2019-02-27T04:26:07.046Z,62.26
2019-02-27T04:28:33.719Z,62.24
2019-02-27T04:31:00.419Z,62.34
2019-02-27T04:33:27.042Z,62.48
2019-02-27T04:35:53.659Z,62.64
2019-02-27T04:38:20.353Z,63.59
2019-02-27T04:40:47.073Z,63.72
2019-02-27T04:43:13.766Z,63.21
2019-02-27T04:45:40.510Z,63.47
2019-02-27T04:48:07.123Z,63.75
2019-02-27T04:50:33.794Z,63.66
2019-02-27T04:53:00.451Z,63.60
2019-02-27T04:55:27.169Z,63.97
2019-02-27T04:57:53.876Z,63.14
2019-02-27T05:00:20.592Z,63.28
2019-02-27T05:02:47.189Z,64.72
2019-02-27T05:05:13.862Z,63.96
2019-02-27T05:07:40.518Z,64.22
2019-02-27T05:10:08.357Z,64.41
2019-02-27T05:12:35.070Z,64.05
2019-02-27T05:15:04.068Z,63.88
2019-02-27T05:17:30.411Z,63.23
2019-02-27T05:19:57.102Z,63.16
2019-02-27T05:22:26.182Z,64.17
2019-02-27T05:24:52.318Z,63.81
2019-02-27T05:27:18.994Z,63.52
2019-02-27T05:29:46.754Z,63.22
2019-02-27T05:32:13.449Z,63.85
2019-02-27T05:34:40.165Z,64.15
2019-02-27T05:37:06.879Z,63.49
2019-02-27T05:39:33.876Z,63.55
2019-02-27T05:42:00.957Z,63.95
2019-02-27T05:44:27.804Z,63.74
2019-02-27T05:46:54.393Z,65.17
2019-02-27T05:49:20.996Z,64.74
2019-02-27T05:51:48.763Z,65.25
2019-02-27T05:54:15.385Z,65.24
2019-02-27T05:56:41.955Z,64.80
2019-02-27T05:59:08.646Z,66.20
2019-02-27T06:01:38.013Z,65.68
2019-02-27T06:04:03.772Z,65.30
2019-02-27T06:06:30.521Z,64.46
2019-02-27T06:08:57.133Z,65.07
2019-02-27T06:11:23.725Z,63.74
2019-02-27T06:13:50.387Z,64.49
2019-02-27T06:16:17.087Z,63.71
2019-02-27T06:18:43.786Z,63.28
2019-02-27T06:21:10.473Z,62.94
2019-02-27T06:23:37.745Z,61.93
2019-02-27T06:26:05.267Z,60.64
2019-02-27T06:28:32.936Z,59.17
2019-02-27T06:31:02.535Z,58.01
2019-02-27T06:33:28.160Z,57.33
2019-02-27T06:35:54.850Z,56.68
2019-02-27T06:38:24.992Z,55.01
2019-02-27T06:40:51.959Z,53.72
2019-02-27T06:43:18.623Z,51.69
2019-02-27T06:45:46.421Z,51.37
2019-02-27T06:48:13.322Z,50.56
2019-02-27T06:50:40.065Z,50.16
2019-02-27T06:53:06.663Z,50.08
2019-02-27T06:55:33.963Z,49.69
2019-02-27T06:58:00.754Z,48.81
2019-02-27T07:00:27.407Z,47.87
2019-02-27T07:02:55.441Z,48.07
2019-02-27T07:05:22.675Z,47.14
2019-02-27T07:07:49.271Z,46.48
2019-02-27T07:10:19.630Z,46.14
2019-02-27T07:12:45.627Z,44.45
2019-02-27T07:15:20.829Z,44.28
2019-02-27T07:17:47.562Z,44.21
2019-02-27T07:20:14.975Z,43.33
2019-02-27T07:22:45.680Z,43.48
2019-02-27T07:25:14.710Z,43.80
2019-02-27T07:27:41.483Z,43.27
2019-02-27T07:30:11.310Z,42.69
2019-02-27T07:32:37.974Z,42.34
2019-02-27T07:35:07.094Z,42.18
2019-02-27T07:37:33.764Z,42.23
2019-02-27T07:40:00.375Z,41.87
2019-02-27T07:42:27.100Z,42.20
2019-02-27T07:44:55.614Z,41.71
2019-02-27T07:47:22.327Z,41.59
2019-02-27T07:49:49.021Z,41.12
2019-02-27T07:52:15.639Z,40.81
2019-02-27T07:54:42.274Z,40.72
2019-02-27T07:57:08.998Z,40.67
2019-02-27T07:59:37.973Z,40.68
2019-02-27T08:02:04.323Z,40.32
2019-02-27T08:04:31.029Z,40.05
2019-02-27T08:06:57.732Z,40.60
2019-02-27T08:09:24.413Z,40.19
2019-02-27T08:11:51.098Z,40.36
2019-02-27T08:14:17.819Z,40.53
2019-02-27T08:16:44.523Z,40.08
2019-02-27T08:19:11.546Z,40.17
2019-02-27T08:21:38.919Z,40.48
2019-02-27T08:24:07.362Z,40.36
2019-02-27T08:26:36.447Z,40.07
2019-02-27T08:29:02.631Z,40.67
2019-02-27T08:31:29.378Z,40.34
2019-02-27T08:33:55.980Z,40.36
2019-02-27T08:36:22.716Z,39.88
2019-02-27T08:38:49.403Z,39.91
2019-02-27T08:41:16.154Z,39.35
2019-02-27T08:43:42.871Z,39.16
2019-02-27T08:46:09.578Z,38.75
2019-02-27T08:48:36.276Z,39.04
2019-02-27T08:51:08.730Z,39.68
2019-02-27T08:53:35.394Z,39.44
2019-02-27T08:56:02.063Z,39.28
2019-02-27T08:58:29.611Z,38.95
2019-02-27T09:00:58.089Z,38.63
2019-02-27T09:03:24.827Z,38.40
2019-02-27T09:05:53.775Z,37.92
2019-02-27T09:08:20.236Z,37.95
2019-02-27T09:10:46.926Z,37.16
2019-02-27T09:13:13.564Z,37.08
2019-02-27T09:15:41.683Z,36.34
2019-02-27T09:18:08.533Z,36.99
2019-02-27T09:20:35.122Z,36.65
2019-02-27T09:23:01.874Z,35.41
2019-02-27T09:25:28.601Z,35.73
2019-02-27T09:27:55.219Z,35.57
2019-02-27T09:30:28.906Z,35.71
2019-02-27T09:32:51.998Z,36.01
2019-02-27T09:35:18.747Z,35.96
2019-02-27T09:37:48.384Z,36.31
2019-02-27T09:40:22.129Z,35.32
2019-02-27T09:42:50.285Z,34.86
2019-02-27T09:45:23.656Z,33.61
2019-02-27T09:47:50.343Z,34.01
2019-02-27T09:50:47.663Z,33.86
2019-02-27T09:53:11.527Z,34.11
2019-02-27T09:55:38.300Z,33.61
2019-02-27T09:58:09.899Z,33.54
2019-02-27T10:00:37.146Z,35.34
2019-02-27T10:03:04.044Z,33.50
2019-02-27T10:05:31.168Z,36.53
2019-02-27T10:07:58.870Z,35.75
2019-02-27T10:10:25.539Z,33.22
2019-02-27T10:12:52.334Z,32.72
2019-02-27T10:15:19.054Z,32.70
2019-02-27T10:17:45.750Z,33.31
2019-02-27T10:20:12.380Z,32.81
2019-02-27T10:22:39.096Z,32.94
2019-02-27T10:25:08.534Z,32.72
2019-02-27T10:27:34.459Z,32.71
2019-02-27T10:30:01.167Z,32.06
2019-02-27T10:32:27.885Z,32.88
2019-02-27T10:34:54.523Z,32.92
2019-02-27T10:37:21.360Z,31.63
2019-02-27T10:39:48.239Z,32.28
2019-02-27T10:42:14.843Z,32.05
2019-02-27T10:44:41.472Z,31.32
2019-02-27T10:47:08.265Z,32.06
2019-02-27T10:49:34.890Z,30.96
2019-02-27T10:52:01.475Z,31.36
2019-02-27T10:54:28.161Z,32.21
2019-02-27T10:56:56.348Z,32.48
2019-02-27T10:59:24.420Z,32.06
2019-02-27T11:01:51.103Z,31.61
2019-02-27T11:04:17.744Z,31.59
2019-02-27T11:06:45.185Z,32.04
2019-02-27T11:09:21.486Z,30.94
2019-02-27T11:11:48.763Z,30.96
2019-02-27T11:14:15.427Z,30.68
2019-02-27T11:16:42.118Z,32.89
2019-02-27T11:19:08.735Z,29.79
2019-02-27T11:21:35.382Z,30.99
2019-02-27T11:24:02.117Z,30.61
2019-02-27T11:26:32.971Z,31.88
2019-02-27T11:28:57.860Z,31.86
2019-02-27T11:31:24.711Z,32.17
2019-02-27T11:33:51.323Z,32.12
2019-02-27T11:36:17.988Z,29.87
2019-02-27T11:38:44.670Z,29.06
2019-02-27T11:41:15.163Z,29.30
2019-02-27T11:43:41.505Z,29.10
2019-02-27T11:46:08.297Z,29.48
2019-02-27T11:48:35.111Z,30.18
2019-02-27T11:51:01.826Z,30.62
2019-02-27T11:53:28.551Z,29.19
2019-02-27T11:55:55.160Z,28.83
2019-02-27T11:58:21.920Z,30.73
2019-02-27T12:00:48.606Z,30.43
2019-02-27T12:03:15.315Z,30.57
2019-02-27T12:05:42.008Z,30.22
2019-02-27T12:08:08.708Z,29.44
2019-02-27T12:10:35.305Z,30.14
2019-02-27T12:13:01.956Z,29.89
2019-02-27T12:15:28.659Z,29.10
2019-02-27T12:17:59.922Z,29.14
2019-02-27T12:20:23.761Z,28.56
2019-02-27T12:22:50.438Z,27.94
2019-02-27T12:25:18.826Z,27.25
2019-02-27T12:27:49.626Z,27.38
2019-02-27T12:30:18.786Z,27.19
2019-02-27T12:32:45.595Z,26.97
2019-02-27T12:35:20.849Z,26.82
2019-02-27T12:37:47.515Z,27.09
2019-02-27T12:40:16.979Z,27.11
2019-02-27T12:42:43.824Z,27.14
2019-02-27T12:45:15.632Z,27.11
2019-02-27T12:47:42.479Z,27.68
2019-02-27T12:50:12.702Z,28.21
2019-02-27T12:52:44.329Z,28.06
2019-02-27T12:55:08.415Z,26.54
2019-02-27T12:57:35.156Z,27.09
2019-02-27T13:00:02.145Z,27.42
2019-02-27T13:02:35.647Z,27.68
2019-02-27T13:04:57.971Z,27.73
2019-02-27T13:07:24.778Z,27.64
2019-02-27T13:09:51.735Z,27.99
2019-02-27T13:12:18.443Z,27.79
2019-02-27T13:14:45.108Z,27.93
2019-02-27T13:17:11.744Z,28.14
2019-02-27T13:19:39.106Z,27.28
2019-02-27T13:22:05.870Z,27.65
2019-02-27T13:24:33.575Z,26.79
2019-02-27T13:27:00.374Z,26.75
2019-02-27T13:29:27.065Z,27.27
2019-02-27T13:31:53.681Z,26.82
2019-02-27T13:34:20.337Z,26.69
2019-02-27T13:36:46.997Z,26.80
2019-02-27T13:39:13.818Z,26.91
2019-02-27T13:41:42.377Z,26.92
2019-02-27T13:44:09.136Z,27.90
2019-02-27T13:46:35.760Z,28.49
2019-02-27T13:49:02.406Z,28.35
2019-02-27T13:51:29.125Z,27.37
2019-02-27T13:54:00.293Z,27.36
2019-02-27T13:56:25.114Z,26.98
2019-02-27T13:58:52.833Z,27.16
2019-02-27T14:01:19.421Z,27.45
2019-02-27T14:03:48.382Z,27.98
2019-02-27T14:06:14.607Z,28.03
2019-02-27T14:08:41.196Z,27.80
2019-02-27T14:11:07.795Z,26.96
2019-02-27T14:13:34.495Z,26.79
2019-02-27T14:16:01.600Z,28.30
2019-02-27T14:18:28.428Z,28.37
2019-02-27T14:20:55.210Z,27.93
2019-02-27T14:23:21.897Z,26.95
2019-02-27T14:25:48.521Z,27.48
2019-02-27T14:28:15.293Z,28.94
2019-02-27T14:30:47.391Z,27.87
2019-02-27T14:33:19.588Z,30.11
2019-02-27T14:35:48.270Z,28.41
2019-02-27T14:38:14.895Z,28.03
2019-02-27T14:40:41.552Z,26.47
2019-02-27T14:43:08.252Z,29.00
2019-02-27T14:45:39.486Z,27.56
2019-02-27T14:48:03.641Z,30.00
2019-02-27T14:50:33.520Z,28.71
2019-02-27T14:52:58.841Z,28.17
2019-02-27T14:55:25.580Z,27.94
2019-02-27T14:57:52.251Z,29.61
2019-02-27T15:00:24.675Z,28.45
2019-02-27T15:02:52.151Z,28.88
2019-02-27T15:05:18.984Z,27.51
2019-02-27T15:07:45.595Z,27.26
2019-02-27T15:10:19.757Z,27.67
2019-02-27T15:12:46.531Z,27.78
2019-02-27T15:15:16.031Z,27.81
2019-02-27T15:17:42.735Z,27.85
2019-02-27T15:20:12.443Z,28.26
2019-02-27T15:22:39.151Z,28.41
2019-02-27T15:25:08.836Z,28.60
2019-02-27T15:27:35.606Z,28.35
2019-02-27T15:30:02.538Z,28.62
2019-02-27T15:32:30.280Z,29.21
2019-02-27T15:34:57.147Z,29.38
2019-02-27T15:37:23.741Z,29.39
2019-02-27T15:39:52.049Z,29.89
2019-02-27T15:42:19.000Z,30.12
2019-02-27T15:44:45.691Z,30.27
2019-02-27T15:47:12.510Z,30.30
2019-02-27T15:49:39.244Z,30.07
2019-02-27T15:52:07.050Z,30.08
2019-02-27T15:54:34.448Z,30.05
2019-02-27T15:57:01.135Z,30.14
2019-02-27T15:59:27.883Z,30.33
2019-02-27T16:01:54.654Z,30.16
2019-02-27T16:04:21.915Z,30.13
2019-02-27T16:06:51.134Z,30.32
2019-02-27T16:09:17.678Z,30.77
2019-02-27T16:11:44.305Z,30.62
2019-02-27T16:14:10.999Z,30.93
2019-02-27T16:16:37.620Z,30.31
2019-02-27T16:19:04.331Z,30.74
2019-02-27T16:21:31.004Z,30.95
2019-02-27T16:23:59.365Z,30.57
2019-02-27T16:26:29.254Z,30.78
2019-02-27T16:28:56.501Z,31.03
2019-02-27T16:31:23.234Z,31.50
2019-02-27T16:33:49.837Z,31.84
2019-02-27T16:36:16.582Z,31.97
2019-02-27T16:38:43.212Z,32.12
2019-02-27T16:41:10.115Z,32.16
2019-02-27T16:43:37.873Z,32.58
2019-02-27T16:46:08.645Z,32.78
2019-02-27T16:48:35.360Z,33.08
2019-02-27T16:51:02.227Z,34.04
2019-02-27T16:53:28.834Z,33.76
2019-02-27T16:55:55.485Z,34.61
2019-02-27T16:58:22.231Z,34.30
2019-02-27T17:00:48.851Z,34.33
2019-02-27T17:03:15.472Z,34.21
2019-02-27T17:05:43.231Z,34.61
2019-02-27T17:08:10.657Z,35.07
2019-02-27T17:10:37.999Z,35.62
2019-02-27T17:13:04.823Z,35.87
2019-02-27T17:15:34.536Z,35.95
2019-02-27T17:18:00.195Z,36.03
2019-02-27T17:20:27.647Z,36.30
2019-02-27T17:22:54.602Z,36.62
2019-02-27T17:25:21.436Z,37.32
2019-02-27T17:27:50.847Z,37.85
2019-02-27T17:30:36.630Z,38.11
2019-02-27T17:33:01.380Z,38.14
2019-02-27T17:35:29.588Z,38.24
2019-02-27T17:37:56.191Z,38.24
2019-02-27T17:40:24.728Z,38.48
2019-02-27T17:42:53.569Z,38.72
2019-02-27T17:45:21.770Z,39.30
2019-02-27T17:47:48.483Z,39.47
2019-02-27T17:50:15.790Z,39.59
2019-02-27T17:52:42.680Z,39.75
2019-02-27T17:55:11.567Z,40.45
2019-02-27T17:57:38.256Z,40.80
2019-02-27T18:00:12.879Z,40.46
2019-02-27T18:02:40.293Z,41.10
2019-02-27T18:05:08.389Z,41.20
2019-02-27T18:07:35.095Z,41.18
2019-02-27T18:10:02.364Z,41.47
2019-02-27T18:12:29.871Z,41.86
2019-02-27T18:14:56.507Z,42.10
2019-02-27T18:17:23.209Z,42.73
2019-02-27T18:19:50.200Z,42.95
2019-02-27T18:22:17.757Z,42.85
2019-02-27T18:24:44.432Z,43.16
2019-02-27T18:27:11.080Z,43.39
2019-02-27T18:29:38.296Z,43.73
2019-02-27T18:32:06.591Z,43.79
2019-02-27T18:34:34.563Z,44.25
2019-02-27T18:37:01.242Z,44.19
2019-02-27T18:39:27.904Z,44.41
2019-02-27T18:41:55.890Z,44.34
2019-02-27T18:44:22.796Z,44.56
2019-02-27T18:46:49.472Z,44.56
2019-02-27T18:49:18.535Z,44.83
2019-02-27T18:51:44.779Z,44.61
2019-02-27T18:54:11.546Z,45.48
2019-02-27T18:56:40.385Z,46.07
2019-02-27T18:59:06.795Z,46.46
2019-02-27T19:01:33.491Z,46.62
2019-02-27T19:04:01.262Z,46.61
2019-02-27T19:06:28.093Z,46.58
2019-02-27T19:08:54.807Z,46.70
2019-02-27T19:11:22.513Z,46.97
2019-02-27T19:13:49.161Z,47.15
2019-02-27T19:16:17.525Z,47.22
2019-02-27T19:18:44.484Z,47.50
2019-02-27T19:21:11.075Z,47.63
2019-02-27T19:23:37.780Z,48.64
2019-02-27T19:26:06.356Z,49.01
2019-02-27T19:28:32.966Z,49.15
2019-02-27T19:30:59.623Z,49.28
2019-02-27T19:33:26.314Z,49.32
2019-02-27T19:35:55.822Z,49.24
2019-02-27T19:38:21.547Z,49.47
2019-02-27T19:40:48.163Z,49.43
2019-02-27T19:43:14.832Z,49.53
2019-02-27T19:45:42.301Z,49.97
2019-02-27T19:48:09.207Z,50.01
2019-02-27T19:50:35.855Z,50.58
2019-02-27T19:53:05.201Z,50.59
2019-02-27T19:55:31.162Z,50.66
2019-02-27T19:57:57.823Z,50.61
2019-02-27T20:00:33.702Z,50.65
2019-02-27T20:03:01.078Z,51.88
2019-02-27T20:05:28.285Z,51.63
2019-02-27T20:07:55.182Z,52.56
2019-02-27T20:10:21.919Z,52.53
2019-02-27T20:12:52.750Z,52.30
2019-02-27T20:15:18.867Z,52.93
2019-02-27T20:17:45.520Z,52.76
2019-02-27T20:20:13.939Z,52.79
2019-02-27T20:22:41.142Z,52.70
2019-02-27T20:25:10.521Z,53.39
2019-02-27T20:27:37.261Z,53.37
2019-02-27T20:30:07.397Z,54.02
2019-02-27T20:32:34.588Z,54.07
2019-02-27T20:35:01.257Z,53.74
2019-02-27T20:37:28.019Z,53.72
2019-02-27T20:39:58.383Z,53.83
2019-02-27T20:42:23.419Z,53.79
2019-02-27T20:44:50.156Z,54.02
2019-02-27T20:47:16.792Z,54.25
2019-02-27T20:49:44.701Z,54.54
2019-02-27T20:52:15.037Z,54.56
2019-02-27T20:54:40.796Z,54.41
2019-02-27T20:57:08.940Z,55.14
2019-02-27T20:59:35.906Z,55.43
2019-02-27T21:02:02.689Z,55.33
2019-02-27T21:04:29.271Z,55.37
2019-02-27T21:06:57.052Z,55.83
2019-02-27T21:09:23.769Z,55.70
2019-02-27T21:11:51.815Z,55.46
2019-02-27T21:14:20.505Z,55.30
2019-02-27T21:16:48.133Z,55.40
2019-02-27T21:19:14.731Z,55.04
2019-02-27T21:21:41.418Z,55.27
2019-02-27T21:24:08.076Z,55.26
2019-02-27T21:26:34.804Z,55.52
2019-02-27T21:29:01.557Z,55.36
2019-02-27T21:31:28.346Z,55.28
2019-02-27T21:33:55.010Z,55.92
2019-02-27T21:36:21.738Z,56.02
2019-02-27T21:38:50.300Z,56.61
2019-02-27T21:41:17.089Z,58.00
2019-02-27T21:43:43.820Z,58.01
2019-02-27T21:46:11.728Z,57.36
2019-02-27T21:48:39.202Z,57.02
2019-02-27T21:51:05.852Z,57.19
2019-02-27T21:53:32.499Z,57.37
2019-02-27T21:55:59.298Z,57.41
2019-02-27T21:58:25.986Z,57.41
2019-02-27T22:00:52.640Z,57.17
2019-02-27T22:03:19.265Z,57.04
2019-02-27T22:05:46.584Z,57.00
2019-02-27T22:08:13.171Z,57.30
2019-02-27T22:10:39.852Z,57.04
2019-02-27T22:13:10.526Z,57.32
2019-02-27T22:15:35.103Z,57.76
2019-02-27T22:18:01.751Z,57.82
2019-02-27T22:20:28.450Z,57.66
2019-02-27T22:22:55.048Z,57.97
2019-02-27T22:25:21.777Z,58.30
2019-02-27T22:27:48.483Z,58.53
2019-02-27T22:30:17.622Z,58.65
2019-02-27T22:32:47.405Z,58.63
2019-02-27T22:35:12.811Z,58.42
2019-02-27T22:37:39.625Z,58.72
2019-02-27T22:40:09.654Z,58.78
2019-02-27T22:42:36.354Z,59.20
2019-02-27T22:45:04.942Z,59.53
2019-02-27T22:47:31.846Z,59.66
2019-02-27T22:49:58.547Z,59.48
2019-02-27T22:52:25.143Z,59.18
2019-02-27T22:54:51.928Z,59.21
2019-02-27T22:57:18.588Z,59.11
2019-02-27T22:59:45.387Z,59.26
2019-02-27T23:02:12.339Z,59.30
2019-02-27T23:04:39.037Z,59.03
2019-02-27T23:07:05.691Z,59.96
2019-02-27T23:09:32.470Z,60.22
2019-02-27T23:11:59.331Z,60.56
2019-02-27T23:14:26.048Z,61.49
2019-02-27T23:16:52.842Z,61.36
2019-02-27T23:19:19.628Z,61.52
2019-02-27T23:21:46.211Z,60.62
2019-02-27T23:24:12.865Z,60.14
2019-02-27T23:26:39.523Z,60.41
2019-02-27T23:29:06.537Z,60.42
2019-02-27T23:31:33.335Z,60.06
2019-02-27T23:33:59.994Z,59.76
2019-02-27T23:36:26.624Z,60.05
2019-02-27T23:38:53.289Z,59.81
2019-02-27T23:41:22.770Z,59.72
2019-02-27T23:43:48.623Z,59.45
2019-02-27T23:46:15.664Z,59.35
2019-02-27T23:48:43.894Z,59.65
2019-02-27T23:51:10.510Z,60.24
2019-02-27T23:53:37.189Z,60.42
2019-02-27T23:56:04.353Z,60.46
2019-02-27T23:58:31.095Z,60.03
